sensor_id;sensor_type;location;lat;lon;timestamp;pressure;altitude;pressure_sealevel;temperature;humidity
61436;BME280;47304;47.456;19.160;2022-12-07T00:01:37;100218.85;;;1.32;79.41
61436;BME280;47304;47.456;19.160;2022-12-07T00:04:06;100218.96;;;1.31;79.37
61436;BME280;47304;47.456;19.160;2022-12-07T00:06:36;100221.35;;;1.29;79.32
61436;BME280;47304;47.456;19.160;2022-12-07T00:09:06;100221.98;;;1.28;79.40
61436;BME280;47304;47.456;19.160;2022-12-07T00:11:33;100223.48;;;1.26;79.48
61436;BME280;47304;47.456;19.160;2022-12-07T00:14:03;100218.52;;;1.22;79.35
61436;BME280;47304;47.456;19.160;2022-12-07T00:16:33;100211.22;;;1.21;79.36
61436;BME280;47304;47.456;19.160;2022-12-07T00:19:03;100211.80;;;1.18;79.23
61436;BME280;47304;47.456;19.160;2022-12-07T00:21:33;100212.34;;;1.13;79.26
61436;BME280;47304;47.456;19.160;2022-12-07T00:24:03;100204.95;;;1.09;79.46
61436;BME280;47304;47.456;19.160;2022-12-07T00:26:33;100202.80;;;1.07;79.90
61436;BME280;47304;47.456;19.160;2022-12-07T00:29:04;100202.92;;;1.05;80.12
61436;BME280;47304;47.456;19.160;2022-12-07T00:31:35;100194.98;;;1.05;80.11
61436;BME280;47304;47.456;19.160;2022-12-07T00:34:03;100195.80;;;1.04;80.02
61436;BME280;47304;47.456;19.160;2022-12-07T00:36:30;100193.33;;;1.03;79.72
61436;BME280;47304;47.456;19.160;2022-12-07T00:38:59;100186.15;;;0.99;79.59
61436;BME280;47304;47.456;19.160;2022-12-07T00:41:28;100186.77;;;0.98;79.63
61436;BME280;47304;47.456;19.160;2022-12-07T00:43:56;100188.42;;;0.96;79.67
61436;BME280;47304;47.456;19.160;2022-12-07T00:46:24;100187.81;;;0.93;79.87
61436;BME280;47304;47.456;19.160;2022-12-07T00:48:53;100188.05;;;0.90;80.01
61436;BME280;47304;47.456;19.160;2022-12-07T00:51:23;100188.36;;;0.88;80.16
61436;BME280;47304;47.456;19.160;2022-12-07T00:53:52;100186.02;;;0.86;79.95
61436;BME280;47304;47.456;19.160;2022-12-07T00:56:25;100184.41;;;0.84;80.04
61436;BME280;47304;47.456;19.160;2022-12-07T00:58:58;100183.56;;;0.85;80.23
61436;BME280;47304;47.456;19.160;2022-12-07T01:01:29;100185.11;;;0.85;80.03
61436;BME280;47304;47.456;19.160;2022-12-07T01:03:57;100181.73;;;0.82;79.76
61436;BME280;47304;47.456;19.160;2022-12-07T01:06:25;100179.02;;;0.78;79.60
61436;BME280;47304;47.456;19.160;2022-12-07T01:08:53;100176.46;;;0.74;79.49
61436;BME280;47304;47.456;19.160;2022-12-07T01:11:24;100183.10;;;0.72;79.80
61436;BME280;47304;47.456;19.160;2022-12-07T01:13:54;100182.69;;;0.70;79.66
61436;BME280;47304;47.456;19.160;2022-12-07T01:16:23;100183.46;;;0.68;79.92
61436;BME280;47304;47.456;19.160;2022-12-07T01:18:53;100190.77;;;0.65;80.13
61436;BME280;47304;47.456;19.160;2022-12-07T01:21:24;100192.66;;;0.59;80.39
61436;BME280;47304;47.456;19.160;2022-12-07T01:23:53;100186.67;;;0.56;80.70
61436;BME280;47304;47.456;19.160;2022-12-07T01:26:23;100186.23;;;0.54;81.01
61436;BME280;47304;47.456;19.160;2022-12-07T01:28:51;100179.02;;;0.50;81.28
61436;BME280;47304;47.456;19.160;2022-12-07T01:31:21;100182.05;;;0.48;81.38
61436;BME280;47304;47.456;19.160;2022-12-07T01:33:52;100182.83;;;0.45;81.51
61436;BME280;47304;47.456;19.160;2022-12-07T01:36:25;100173.98;;;0.44;81.51
61436;BME280;47304;47.456;19.160;2022-12-07T01:38:59;100174.80;;;0.43;81.71
61436;BME280;47304;47.456;19.160;2022-12-07T01:41:30;100178.88;;;0.41;81.68
61436;BME280;47304;47.456;19.160;2022-12-07T01:46:44;100177.36;;;0.42;81.55
61436;BME280;47304;47.456;19.160;2022-12-07T01:49:18;100171.30;;;0.41;81.45
61436;BME280;47304;47.456;19.160;2022-12-07T01:51:49;100166.83;;;0.42;81.46
61436;BME280;47304;47.456;19.160;2022-12-07T01:54:18;100167.08;;;0.43;81.55
61436;BME280;47304;47.456;19.160;2022-12-07T01:56:51;100168.87;;;0.46;81.48
61436;BME280;47304;47.456;19.160;2022-12-07T01:59:23;100165.63;;;0.46;81.48
61436;BME280;47304;47.456;19.160;2022-12-07T02:01:54;100171.52;;;0.47;81.61
61436;BME280;47304;47.456;19.160;2022-12-07T02:04:23;100168.80;;;0.49;81.72
61436;BME280;47304;47.456;19.160;2022-12-07T02:06:51;100168.68;;;0.50;81.79
61436;BME280;47304;47.456;19.160;2022-12-07T02:09:19;100164.63;;;0.52;81.84
61436;BME280;47304;47.456;19.160;2022-12-07T02:11:47;100159.52;;;0.54;81.79
61436;BME280;47304;47.456;19.160;2022-12-07T02:14:14;100162.34;;;0.55;81.90
61436;BME280;47304;47.456;19.160;2022-12-07T02:25:39;100161.38;;;0.67;82.10
61436;BME280;47304;47.456;19.160;2022-12-07T02:31:21;100154.96;;;0.71;82.31
61436;BME280;47304;47.456;19.160;2022-12-07T02:33:54;100156.41;;;0.73;82.33
61436;BME280;47304;47.456;19.160;2022-12-07T02:36:30;100154.91;;;0.74;82.37
61436;BME280;47304;47.456;19.160;2022-12-07T02:39:06;100158.23;;;0.75;82.48
61436;BME280;47304;47.456;19.160;2022-12-07T02:41:40;100162.58;;;0.76;82.56
61436;BME280;47304;47.456;19.160;2022-12-07T02:44:13;100166.63;;;0.79;82.80
61436;BME280;47304;47.456;19.160;2022-12-07T02:46:50;100167.27;;;0.82;82.87
61436;BME280;47304;47.456;19.160;2022-12-07T02:49:22;100160.52;;;0.86;82.88
61436;BME280;47304;47.456;19.160;2022-12-07T02:51:52;100159.23;;;0.89;82.81
61436;BME280;47304;47.456;19.160;2022-12-07T02:54:20;100159.35;;;0.92;82.82
61436;BME280;47304;47.456;19.160;2022-12-07T03:02:54;100147.96;;;0.98;82.44
61436;BME280;47304;47.456;19.160;2022-12-07T03:11:23;100145.66;;;0.96;82.63
61436;BME280;47304;47.456;19.160;2022-12-07T03:16:33;100146.45;;;0.99;82.37
61436;BME280;47304;47.456;19.160;2022-12-07T03:19:08;100141.14;;;1.00;82.58
61436;BME280;47304;47.456;19.160;2022-12-07T03:21:44;100140.05;;;1.03;82.68
61436;BME280;47304;47.456;19.160;2022-12-07T03:24:26;100140.87;;;1.07;82.55
61436;BME280;47304;47.456;19.160;2022-12-07T03:27:01;100140.27;;;1.10;82.39
61436;BME280;47304;47.456;19.160;2022-12-07T03:29:34;100142.04;;;1.11;82.32
61436;BME280;47304;47.456;19.160;2022-12-07T03:32:10;100140.30;;;1.11;82.29
61436;BME280;47304;47.456;19.160;2022-12-07T03:34:47;100139.56;;;1.09;82.16
61436;BME280;47304;47.456;19.160;2022-12-07T03:40:18;100136.11;;;1.09;82.31
61436;BME280;47304;47.456;19.160;2022-12-07T03:42:47;100132.66;;;1.09;82.43
61436;BME280;47304;47.456;19.160;2022-12-07T03:45:16;100132.80;;;1.09;82.41
61436;BME280;47304;47.456;19.160;2022-12-07T03:53:35;100139.12;;;1.06;82.78
61436;BME280;47304;47.456;19.160;2022-12-07T03:56:05;100143.23;;;1.11;82.77
61436;BME280;47304;47.456;19.160;2022-12-07T03:58:34;100143.19;;;1.15;82.65
61436;BME280;47304;47.456;19.160;2022-12-07T04:01:02;100145.73;;;1.18;82.70
61436;BME280;47304;47.456;19.160;2022-12-07T04:03:30;100149.16;;;1.22;82.69
61436;BME280;47304;47.456;19.160;2022-12-07T04:05:58;100153.04;;;1.25;82.55
61436;BME280;47304;47.456;19.160;2022-12-07T04:08:26;100150.66;;;1.27;82.40
61436;BME280;47304;47.456;19.160;2022-12-07T04:10:54;100152.42;;;1.28;82.39
61436;BME280;47304;47.456;19.160;2022-12-07T04:13:21;100150.35;;;1.28;82.46
61436;BME280;47304;47.456;19.160;2022-12-07T04:15:49;100155.27;;;1.30;82.54
61436;BME280;47304;47.456;19.160;2022-12-07T04:18:17;100164.33;;;1.32;82.43
61436;BME280;47304;47.456;19.160;2022-12-07T04:20:45;100162.50;;;1.34;82.50
61436;BME280;47304;47.456;19.160;2022-12-07T04:23:13;100158.70;;;1.40;82.70
61436;BME280;47304;47.456;19.160;2022-12-07T04:25:41;100160.44;;;1.45;82.61
61436;BME280;47304;47.456;19.160;2022-12-07T04:28:08;100159.20;;;1.50;82.61
61436;BME280;47304;47.456;19.160;2022-12-07T04:30:36;100155.17;;;1.53;82.35
61436;BME280;47304;47.456;19.160;2022-12-07T04:33:03;100159.63;;;1.57;82.45
61436;BME280;47304;47.456;19.160;2022-12-07T04:35:31;100158.49;;;1.60;82.32
61436;BME280;47304;47.456;19.160;2022-12-07T04:37:59;100159.79;;;1.63;82.41
61436;BME280;47304;47.456;19.160;2022-12-07T04:40:26;100156.39;;;1.64;82.32
61436;BME280;47304;47.456;19.160;2022-12-07T04:42:54;100161.42;;;1.65;82.37
61436;BME280;47304;47.456;19.160;2022-12-07T04:45:21;100161.63;;;1.66;82.29
61436;BME280;47304;47.456;19.160;2022-12-07T04:47:49;100166.38;;;1.69;82.42
61436;BME280;47304;47.456;19.160;2022-12-07T04:50:17;100163.34;;;1.71;82.32
61436;BME280;47304;47.456;19.160;2022-12-07T04:52:44;100162.02;;;1.74;82.37
61436;BME280;47304;47.456;19.160;2022-12-07T04:55:12;100158.48;;;1.76;82.36
61436;BME280;47304;47.456;19.160;2022-12-07T04:57:40;100152.15;;;1.78;82.28
61436;BME280;47304;47.456;19.160;2022-12-07T05:00:08;100150.66;;;1.80;82.42
61436;BME280;47304;47.456;19.160;2022-12-07T05:02:35;100153.52;;;1.82;82.29
61436;BME280;47304;47.456;19.160;2022-12-07T05:05:03;100155.61;;;1.84;82.17
61436;BME280;47304;47.456;19.160;2022-12-07T05:07:31;100157.72;;;1.84;82.29
61436;BME280;47304;47.456;19.160;2022-12-07T05:09:58;100156.73;;;1.86;82.30
61436;BME280;47304;47.456;19.160;2022-12-07T05:12:27;100160.25;;;1.88;82.27
61436;BME280;47304;47.456;19.160;2022-12-07T05:14:54;100155.80;;;1.89;82.41
61436;BME280;47304;47.456;19.160;2022-12-07T05:17:22;100157.48;;;1.93;82.70
61436;BME280;47304;47.456;19.160;2022-12-07T05:19:50;100154.51;;;1.97;82.53
61436;BME280;47304;47.456;19.160;2022-12-07T05:22:17;100152.71;;;2.01;82.47
61436;BME280;47304;47.456;19.160;2022-12-07T05:24:45;100155.70;;;2.03;82.17
61436;BME280;47304;47.456;19.160;2022-12-07T05:27:13;100157.91;;;2.02;82.08
61436;BME280;47304;47.456;19.160;2022-12-07T05:29:40;100154.92;;;2.00;81.99
61436;BME280;47304;47.456;19.160;2022-12-07T05:32:08;100160.04;;;1.98;82.06
61436;BME280;47304;47.456;19.160;2022-12-07T05:34:35;100155.29;;;1.95;82.09
61436;BME280;47304;47.456;19.160;2022-12-07T05:37:03;100152.81;;;1.94;82.20
61436;BME280;47304;47.456;19.160;2022-12-07T05:39:31;100155.56;;;1.93;82.26
61436;BME280;47304;47.456;19.160;2022-12-07T05:41:59;100158.94;;;1.91;82.37
61436;BME280;47304;47.456;19.160;2022-12-07T05:44:26;100155.76;;;1.88;82.36
61436;BME280;47304;47.456;19.160;2022-12-07T05:46:54;100149.45;;;1.85;82.45
61436;BME280;47304;47.456;19.160;2022-12-07T05:49:21;100142.68;;;1.84;82.57
61436;BME280;47304;47.456;19.160;2022-12-07T05:51:49;100140.04;;;1.82;82.66
61436;BME280;47304;47.456;19.160;2022-12-07T05:54:17;100140.20;;;1.77;82.60
61436;BME280;47304;47.456;19.160;2022-12-07T05:56:44;100142.81;;;1.72;82.82
61436;BME280;47304;47.456;19.160;2022-12-07T05:59:12;100145.42;;;1.67;82.87
61436;BME280;47304;47.456;19.160;2022-12-07T06:01:40;100146.95;;;1.61;82.97
61436;BME280;47304;47.456;19.160;2022-12-07T06:04:08;100144.96;;;1.58;83.17
61436;BME280;47304;47.456;19.160;2022-12-07T06:06:36;100145.74;;;1.55;83.31
61436;BME280;47304;47.456;19.160;2022-12-07T06:09:04;100148.61;;;1.53;83.35
61436;BME280;47304;47.456;19.160;2022-12-07T06:11:32;100150.73;;;1.55;83.53
61436;BME280;47304;47.456;19.160;2022-12-07T06:14:00;100149.89;;;1.55;83.61
61436;BME280;47304;47.456;19.160;2022-12-07T06:16:27;100145.99;;;1.58;83.78
61436;BME280;47304;47.456;19.160;2022-12-07T06:18:55;100146.02;;;1.59;83.56
61436;BME280;47304;47.456;19.160;2022-12-07T06:21:23;100146.53;;;1.58;83.62
61436;BME280;47304;47.456;19.160;2022-12-07T06:23:50;100147.42;;;1.59;83.59
61436;BME280;47304;47.456;19.160;2022-12-07T06:26:18;100148.64;;;1.60;83.72
61436;BME280;47304;47.456;19.160;2022-12-07T06:28:46;100149.93;;;1.62;83.87
61436;BME280;47304;47.456;19.160;2022-12-07T06:31:14;100149.59;;;1.62;83.65
61436;BME280;47304;47.456;19.160;2022-12-07T06:33:42;100154.63;;;1.63;83.64
61436;BME280;47304;47.456;19.160;2022-12-07T06:36:10;100154.13;;;1.64;83.91
61436;BME280;47304;47.456;19.160;2022-12-07T06:38:37;100156.11;;;1.66;83.74
61436;BME280;47304;47.456;19.160;2022-12-07T06:41:05;100153.91;;;1.67;83.73
61436;BME280;47304;47.456;19.160;2022-12-07T06:43:33;100156.15;;;1.67;83.57
61436;BME280;47304;47.456;19.160;2022-12-07T06:46:01;100153.89;;;1.67;83.60
61436;BME280;47304;47.456;19.160;2022-12-07T06:48:28;100155.29;;;1.67;83.62
61436;BME280;47304;47.456;19.160;2022-12-07T06:50:56;100156.16;;;1.68;83.68
61436;BME280;47304;47.456;19.160;2022-12-07T06:53:24;100157.85;;;1.67;83.66
61436;BME280;47304;47.456;19.160;2022-12-07T06:55:51;100164.02;;;1.65;83.66
61436;BME280;47304;47.456;19.160;2022-12-07T06:58:19;100164.23;;;1.67;83.89
61436;BME280;47304;47.456;19.160;2022-12-07T07:00:48;100165.14;;;1.67;83.89
61436;BME280;47304;47.456;19.160;2022-12-07T07:03:16;100171.77;;;1.69;83.98
61436;BME280;47304;47.456;19.160;2022-12-07T07:05:44;100177.07;;;1.74;83.87
61436;BME280;47304;47.456;19.160;2022-12-07T07:08:12;100180.70;;;1.74;83.52
61436;BME280;47304;47.456;19.160;2022-12-07T07:10:49;100175.20;;;1.74;83.45
61436;BME280;47304;47.456;19.160;2022-12-07T07:13:17;100172.90;;;1.73;83.41
61436;BME280;47304;47.456;19.160;2022-12-07T07:15:45;100168.23;;;1.73;83.58
61436;BME280;47304;47.456;19.160;2022-12-07T07:18:13;100167.33;;;1.77;83.85
61436;BME280;47304;47.456;19.160;2022-12-07T07:20:40;100172.65;;;1.82;83.93
61436;BME280;47304;47.456;19.160;2022-12-07T07:23:08;100167.61;;;1.86;83.93
61436;BME280;47304;47.456;19.160;2022-12-07T07:25:36;100172.08;;;1.91;83.93
61436;BME280;47304;47.456;19.160;2022-12-07T07:28:04;100170.68;;;1.96;83.71
61436;BME280;47304;47.456;19.160;2022-12-07T07:30:31;100171.48;;;1.99;83.57
61436;BME280;47304;47.456;19.160;2022-12-07T07:33:03;100171.12;;;1.99;83.22
61436;BME280;47304;47.456;19.160;2022-12-07T07:35:32;100172.30;;;1.98;83.31
61436;BME280;47304;47.456;19.160;2022-12-07T07:38:01;100173.47;;;1.97;83.40
61436;BME280;47304;47.456;19.160;2022-12-07T07:40:29;100173.20;;;1.99;83.81
61436;BME280;47304;47.456;19.160;2022-12-07T07:42:59;100172.10;;;2.02;83.86
61436;BME280;47304;47.456;19.160;2022-12-07T07:45:26;100178.41;;;2.06;83.83
61436;BME280;47304;47.456;19.160;2022-12-07T07:47:55;100174.67;;;2.07;83.84
61436;BME280;47304;47.456;19.160;2022-12-07T07:50:22;100172.08;;;2.07;83.62
61436;BME280;47304;47.456;19.160;2022-12-07T07:52:51;100171.21;;;2.07;83.73
61436;BME280;47304;47.456;19.160;2022-12-07T07:55:18;100177.27;;;2.07;83.84
61436;BME280;47304;47.456;19.160;2022-12-07T07:57:46;100177.28;;;2.08;83.93
61436;BME280;47304;47.456;19.160;2022-12-07T08:00:21;100174.10;;;2.11;84.15
61436;BME280;47304;47.456;19.160;2022-12-07T08:02:49;100174.66;;;2.13;84.00
61436;BME280;47304;47.456;19.160;2022-12-07T08:05:17;100178.25;;;2.17;84.31
61436;BME280;47304;47.456;19.160;2022-12-07T08:07:44;100179.11;;;2.23;84.35
61436;BME280;47304;47.456;19.160;2022-12-07T08:10:13;100180.23;;;2.26;84.25
61436;BME280;47304;47.456;19.160;2022-12-07T08:12:42;100178.55;;;2.27;84.14
61436;BME280;47304;47.456;19.160;2022-12-07T08:15:10;100177.39;;;2.29;84.18
61436;BME280;47304;47.456;19.160;2022-12-07T08:17:37;100178.50;;;2.31;84.36
61436;BME280;47304;47.456;19.160;2022-12-07T08:20:06;100175.61;;;2.39;84.41
61436;BME280;47304;47.456;19.160;2022-12-07T08:22:33;100177.35;;;2.45;84.39
61436;BME280;47304;47.456;19.160;2022-12-07T08:25:01;100183.63;;;2.53;84.28
61436;BME280;47304;47.456;19.160;2022-12-07T08:27:29;100186.34;;;2.63;84.39
61436;BME280;47304;47.456;19.160;2022-12-07T08:29:57;100186.41;;;2.72;84.09
61436;BME280;47304;47.456;19.160;2022-12-07T08:32:24;100185.84;;;2.82;84.00
61436;BME280;47304;47.456;19.160;2022-12-07T08:34:52;100178.42;;;2.96;84.19
61436;BME280;47304;47.456;19.160;2022-12-07T08:37:19;100182.07;;;3.09;84.10
61436;BME280;47304;47.456;19.160;2022-12-07T08:39:47;100179.87;;;3.24;83.80
61436;BME280;47304;47.456;19.160;2022-12-07T08:42:15;100185.27;;;3.39;83.66
61436;BME280;47304;47.456;19.160;2022-12-07T08:44:42;100191.79;;;3.57;83.50
61436;BME280;47304;47.456;19.160;2022-12-07T08:47:10;100191.06;;;3.69;83.17
61436;BME280;47304;47.456;19.160;2022-12-07T08:49:40;100191.45;;;3.86;82.96
61436;BME280;47304;47.456;19.160;2022-12-07T08:52:09;100192.73;;;4.04;82.58
61436;BME280;47304;47.456;19.160;2022-12-07T08:54:38;100188.20;;;4.25;82.12
61436;BME280;47304;47.456;19.160;2022-12-07T08:57:08;100186.94;;;4.47;81.74
61436;BME280;47304;47.456;19.160;2022-12-07T08:59:37;100185.48;;;4.69;81.48
61436;BME280;47304;47.456;19.160;2022-12-07T09:02:05;100185.64;;;4.94;81.13
61436;BME280;47304;47.456;19.160;2022-12-07T09:04:33;100181.91;;;5.18;80.65
61436;BME280;47304;47.456;19.160;2022-12-07T09:07:01;100181.80;;;5.40;79.97
61436;BME280;47304;47.456;19.160;2022-12-07T09:09:29;100179.50;;;5.60;79.51
61436;BME280;47304;47.456;19.160;2022-12-07T09:11:56;100180.85;;;5.78;78.43
61436;BME280;47304;47.456;19.160;2022-12-07T09:14:24;100177.31;;;5.84;77.73
61436;BME280;47304;47.456;19.160;2022-12-07T09:16:52;100176.91;;;5.92;77.52
61436;BME280;47304;47.456;19.160;2022-12-07T09:19:19;100178.02;;;6.07;77.39
61436;BME280;47304;47.456;19.160;2022-12-07T09:21:47;100173.33;;;6.31;76.61
61436;BME280;47304;47.456;19.160;2022-12-07T09:24:14;100165.20;;;6.79;76.59
61436;BME280;47304;47.456;19.160;2022-12-07T09:26:42;100166.52;;;7.35;75.62
61436;BME280;47304;47.456;19.160;2022-12-07T09:29:10;100163.73;;;7.56;74.12
61436;BME280;47304;47.456;19.160;2022-12-07T09:31:37;100165.73;;;7.64;73.12
61436;BME280;47304;47.456;19.160;2022-12-07T09:34:05;100161.16;;;7.61;72.70
61436;BME280;47304;47.456;19.160;2022-12-07T09:36:33;100160.08;;;7.56;71.95
61436;BME280;47304;47.456;19.160;2022-12-07T09:39:01;100157.46;;;7.36;71.10
61436;BME280;47304;47.456;19.160;2022-12-07T09:41:30;100156.14;;;7.25;71.48
61436;BME280;47304;47.456;19.160;2022-12-07T09:44:04;100158.19;;;7.21;71.33
61436;BME280;47304;47.456;19.160;2022-12-07T09:46:40;100158.75;;;7.44;71.57
61436;BME280;47304;47.456;19.160;2022-12-07T09:49:12;100156.09;;;7.60;70.82
61436;BME280;47304;47.456;19.160;2022-12-07T09:51:42;100152.76;;;7.56;69.46
61436;BME280;47304;47.456;19.160;2022-12-07T09:54:15;100153.77;;;7.52;70.08
61436;BME280;47304;47.456;19.160;2022-12-07T09:56:44;100149.23;;;7.51;70.24
61436;BME280;47304;47.456;19.160;2022-12-07T09:59:18;100148.16;;;7.47;69.86
61436;BME280;47304;47.456;19.160;2022-12-07T10:01:48;100146.27;;;7.52;70.41
61436;BME280;47304;47.456;19.160;2022-12-07T10:04:22;100146.44;;;7.74;70.01
61436;BME280;47304;47.456;19.160;2022-12-07T10:06:50;100139.03;;;7.87;69.65
61436;BME280;47304;47.456;19.160;2022-12-07T10:09:20;100136.36;;;7.80;69.65
61436;BME280;47304;47.456;19.160;2022-12-07T10:12:06;100130.79;;;7.79;69.55
61436;BME280;47304;47.456;19.160;2022-12-07T10:14:38;100130.50;;;7.87;69.06
61436;BME280;47304;47.456;19.160;2022-12-07T10:17:35;100123.77;;;7.97;68.19
61436;BME280;47304;47.456;19.160;2022-12-07T10:20:14;100120.23;;;7.93;67.74
61436;BME280;47304;47.456;19.160;2022-12-07T10:25:31;100127.69;;;7.83;67.93
61436;BME280;47304;47.456;19.160;2022-12-07T10:28:22;100131.36;;;7.86;67.56
61436;BME280;47304;47.456;19.160;2022-12-07T10:33:37;100135.58;;;7.67;68.07
61436;BME280;47304;47.456;19.160;2022-12-07T10:36:19;100136.42;;;7.63;68.11
61436;BME280;47304;47.456;19.160;2022-12-07T10:38:49;100131.48;;;7.55;68.21
61436;BME280;47304;47.456;19.160;2022-12-07T10:41:17;100128.67;;;7.52;68.30
61436;BME280;47304;47.456;19.160;2022-12-07T10:43:50;100124.36;;;7.58;68.06
61436;BME280;47304;47.456;19.160;2022-12-07T10:46:27;100121.20;;;7.80;67.59
61436;BME280;47304;47.456;19.160;2022-12-07T10:51:49;100104.04;;;8.64;66.36
61436;BME280;47304;47.456;19.160;2022-12-07T11:00:16;100102.36;;;8.94;64.11
61436;BME280;47304;47.456;19.160;2022-12-07T11:02:59;100109.20;;;9.05;64.83
61436;BME280;47304;47.456;19.160;2022-12-07T11:05:39;100108.00;;;9.39;63.75
61436;BME280;47304;47.456;19.160;2022-12-07T11:08:30;100102.06;;;10.38;62.59
61436;BME280;47304;47.456;19.160;2022-12-07T11:11:13;100104.81;;;10.57;60.97
61436;BME280;47304;47.456;19.160;2022-12-07T11:19:30;100096.44;;;10.47;59.93
61436;BME280;47304;47.456;19.160;2022-12-07T11:22:30;100090.90;;;11.22;59.94
61436;BME280;47304;47.456;19.160;2022-12-07T11:25:15;100084.11;;;11.60;56.75
61436;BME280;47304;47.456;19.160;2022-12-07T11:28:18;100078.14;;;12.14;56.52
61436;BME280;47304;47.456;19.160;2022-12-07T11:36:41;100075.73;;;11.75;54.01
61436;BME280;47304;47.456;19.160;2022-12-07T11:39:44;100071.20;;;11.32;54.51
61436;BME280;47304;47.456;19.160;2022-12-07T11:42:21;100071.52;;;10.89;55.08
61436;BME280;47304;47.456;19.160;2022-12-07T11:45:24;100069.58;;;11.15;54.76
61436;BME280;47304;47.456;19.160;2022-12-07T11:53:27;100074.06;;;10.73;51.47
61436;BME280;47304;47.456;19.160;2022-12-07T11:56:04;100077.96;;;10.13;52.26
61436;BME280;47304;47.456;19.160;2022-12-07T12:03:38;100089.46;;;9.06;54.63
61436;BME280;47304;47.456;19.160;2022-12-07T12:06:10;100092.55;;;8.77;56.16
61436;BME280;47304;47.456;19.160;2022-12-07T12:08:53;100093.35;;;8.57;56.47
61436;BME280;47304;47.456;19.160;2022-12-07T12:22:42;100062.85;;;8.74;56.24
61436;BME280;47304;47.456;19.160;2022-12-07T12:27:53;100056.09;;;9.09;55.93
61436;BME280;47304;47.456;19.160;2022-12-07T12:30:38;100052.77;;;9.18;55.56
61436;BME280;47304;47.456;19.160;2022-12-07T12:33:17;100042.80;;;9.44;55.24
61436;BME280;47304;47.456;19.160;2022-12-07T12:44:38;100025.62;;;11.83;50.79
61436;BME280;47304;47.456;19.160;2022-12-07T12:46:58;100022.36;;;12.97;49.68
61436;BME280;47304;47.456;19.160;2022-12-07T12:51:56;100016.68;;;13.83;46.41
61436;BME280;47304;47.456;19.160;2022-12-07T12:54:30;100011.47;;;13.89;44.37
61436;BME280;47304;47.456;19.160;2022-12-07T12:57:13;100021.36;;;13.58;43.38
61436;BME280;47304;47.456;19.160;2022-12-07T13:15:44;100046.29;;;9.37;51.23
61436;BME280;47304;47.456;19.160;2022-12-07T13:18:22;100043.49;;;8.99;51.93
61436;BME280;47304;47.456;19.160;2022-12-07T13:29:15;100055.14;;;7.85;55.64
61436;BME280;47304;47.456;19.160;2022-12-07T13:31:55;100057.05;;;7.56;56.47
61436;BME280;47304;47.456;19.160;2022-12-07T13:37:23;100064.77;;;7.19;58.11
61436;BME280;47304;47.456;19.160;2022-12-07T13:39:54;100062.43;;;7.08;58.74
61436;BME280;47304;47.456;19.160;2022-12-07T13:42:34;100063.05;;;6.99;59.02
61436;BME280;47304;47.456;19.160;2022-12-07T13:45:23;100062.98;;;6.94;59.48
61436;BME280;47304;47.456;19.160;2022-12-07T13:47:56;100062.18;;;6.82;59.80
61436;BME280;47304;47.456;19.160;2022-12-07T13:50:29;100062.80;;;6.74;60.29
61436;BME280;47304;47.456;19.160;2022-12-07T13:52:59;100067.08;;;6.66;60.26
61436;BME280;47304;47.456;19.160;2022-12-07T13:55:30;100070.48;;;6.59;60.36
61436;BME280;47304;47.456;19.160;2022-12-07T13:57:57;100070.70;;;6.48;60.15
61436;BME280;47304;47.456;19.160;2022-12-07T14:00:28;100068.29;;;6.35;60.64
61436;BME280;47304;47.456;19.160;2022-12-07T14:05:28;100072.33;;;6.23;61.56
61436;BME280;47304;47.456;19.160;2022-12-07T14:10:41;100075.39;;;6.05;61.23
61436;BME280;47304;47.456;19.160;2022-12-07T14:13:31;100077.02;;;5.97;61.23
61436;BME280;47304;47.456;19.160;2022-12-07T14:16:00;100075.16;;;5.89;60.82
61436;BME280;47304;47.456;19.160;2022-12-07T14:21:18;100071.70;;;5.78;61.34
61436;BME280;47304;47.456;19.160;2022-12-07T14:24:23;100071.11;;;5.75;61.91
61436;BME280;47304;47.456;19.160;2022-12-07T14:26:51;100075.43;;;5.72;62.07
61436;BME280;47304;47.456;19.160;2022-12-07T14:31:48;100079.71;;;5.68;62.44
61436;BME280;47304;47.456;19.160;2022-12-07T14:34:16;100082.08;;;5.63;62.62
61436;BME280;47304;47.456;19.160;2022-12-07T14:36:43;100077.13;;;5.58;62.80
61436;BME280;47304;47.456;19.160;2022-12-07T14:39:11;100079.83;;;5.53;63.05
61436;BME280;47304;47.456;19.160;2022-12-07T14:41:40;100080.27;;;5.48;63.43
61436;BME280;47304;47.456;19.160;2022-12-07T14:44:11;100080.71;;;5.42;63.61
61436;BME280;47304;47.456;19.160;2022-12-07T14:46:59;100087.88;;;5.34;63.97
61436;BME280;47304;47.456;19.160;2022-12-07T14:49:46;100084.82;;;5.28;64.14
61436;BME280;47304;47.456;19.160;2022-12-07T14:52:21;100087.70;;;5.23;64.39
61436;BME280;47304;47.456;19.160;2022-12-07T14:55:30;100091.64;;;5.19;64.76
61436;BME280;47304;47.456;19.160;2022-12-07T14:57:58;100092.60;;;5.16;65.25
61436;BME280;47304;47.456;19.160;2022-12-07T15:00:27;100090.77;;;5.10;65.17
61436;BME280;47304;47.456;19.160;2022-12-07T15:02:56;100094.35;;;5.06;65.56
61436;BME280;47304;47.456;19.160;2022-12-07T15:05:24;100098.48;;;5.04;66.19
61436;BME280;47304;47.456;19.160;2022-12-07T15:07:51;100101.36;;;4.99;66.15
61436;BME280;47304;47.456;19.160;2022-12-07T15:10:25;100108.05;;;4.95;66.18
61436;BME280;47304;47.456;19.160;2022-12-07T15:12:53;100105.20;;;4.91;66.52
61436;BME280;47304;47.456;19.160;2022-12-07T15:15:20;100106.04;;;4.89;67.14
61436;BME280;47304;47.456;19.160;2022-12-07T15:17:48;100109.63;;;4.87;67.31
61436;BME280;47304;47.456;19.160;2022-12-07T15:20:16;100107.83;;;4.83;67.47
61436;BME280;47304;47.456;19.160;2022-12-07T15:22:43;100107.55;;;4.77;67.43
61436;BME280;47304;47.456;19.160;2022-12-07T15:25:14;100109.55;;;4.73;67.72
61436;BME280;47304;47.456;19.160;2022-12-07T15:27:44;100110.46;;;4.66;67.94